createdAt,value
2019-02-07T00:01:24.820Z,12.68
2019-02-07T00:03:54.311Z,9.78
2019-02-07T00:06:23.873Z,10.70
2019-02-07T00:08:54.025Z,11.83
2019-02-07T00:11:23.796Z,10.43
2019-02-07T00:13:53.285Z,10.90
2019-02-07T00:16:23.270Z,10.30
2019-02-07T00:18:52.897Z,9.80
2019-02-07T00:21:22.690Z,11.80
2019-02-07T00:23:52.177Z,11.57
2019-02-07T00:26:21.701Z,10.88
2019-02-07T00:28:51.296Z,12.98
2019-02-07T00:31:21.093Z,12.00
2019-02-07T00:33:50.607Z,12.55
2019-02-07T00:36:20.107Z,12.33
2019-02-07T00:38:49.641Z,12.03
2019-02-07T00:41:19.109Z,10.55
2019-02-07T00:43:48.573Z,12.18
2019-02-07T00:46:18.095Z,12.85
2019-02-07T00:48:47.592Z,11.85
2019-02-07T00:51:17.577Z,10.58
2019-02-07T00:53:47.096Z,10.18
2019-02-07T00:56:16.577Z,10.45
2019-02-07T00:58:46.082Z,12.03
2019-02-07T01:01:19.223Z,8.00
2019-02-07T01:03:48.741Z,10.43
2019-02-07T01:06:18.224Z,12.70
2019-02-07T01:08:48.209Z,10.35
2019-02-07T01:11:18.317Z,11.08
2019-02-07T01:13:47.873Z,11.53
2019-02-07T01:16:17.377Z,11.28
2019-02-07T01:18:47.376Z,11.43
2019-02-07T01:21:16.905Z,11.70
2019-02-07T01:23:46.378Z,12.60
2019-02-07T01:26:16.145Z,11.18
2019-02-07T01:28:45.660Z,10.48
2019-02-07T01:31:15.129Z,10.63
2019-02-07T01:33:44.813Z,11.15
2019-02-07T01:36:14.370Z,10.50
2019-02-07T01:38:44.029Z,12.15
2019-02-07T01:41:13.648Z,11.10
2019-02-07T01:43:43.236Z,11.93
2019-02-07T01:46:12.821Z,13.55
2019-02-07T01:48:42.303Z,12.45
2019-02-07T01:51:11.801Z,9.53
2019-02-07T01:53:41.287Z,12.33
2019-02-07T01:56:10.792Z,11.70
2019-02-07T01:58:40.464Z,10.65
2019-02-07T02:01:10.036Z,11.18
2019-02-07T02:03:39.517Z,10.90
2019-02-07T02:06:09.013Z,10.53
2019-02-07T02:08:38.621Z,11.03
2019-02-07T02:11:08.119Z,10.63
2019-02-07T02:13:37.625Z,10.75
2019-02-07T02:16:07.134Z,11.33
2019-02-07T02:18:37.040Z,11.12
2019-02-07T02:21:06.710Z,10.85
2019-02-07T02:23:36.200Z,13.70
2019-02-07T02:26:05.923Z,11.18
2019-02-07T02:28:35.399Z,11.57
2019-02-07T02:31:04.908Z,10.40
2019-02-07T02:33:34.377Z,13.58
2019-02-07T02:36:04.090Z,12.35
2019-02-07T02:38:33.595Z,13.15
2019-02-07T02:41:03.113Z,12.35
2019-02-07T02:43:32.597Z,11.97
2019-02-07T02:46:02.214Z,13.55
2019-02-07T02:48:31.697Z,13.38
2019-02-07T02:51:01.384Z,10.98
2019-02-07T02:53:30.918Z,13.72
2019-02-07T02:56:02.654Z,12.50
2019-02-07T02:58:32.212Z,13.75
2019-02-07T03:01:27.551Z,15.03
2019-02-07T03:04:16.175Z,11.33
2019-02-07T03:07:00.286Z,11.35
2019-02-07T03:09:57.269Z,12.30
2019-02-07T03:12:48.925Z,12.58
2019-02-07T03:15:36.320Z,12.05
2019-02-07T03:18:38.350Z,11.78
2019-02-07T03:21:34.100Z,10.95
2019-02-07T03:24:21.145Z,11.83
2019-02-07T03:27:06.289Z,11.55
2019-02-07T03:29:55.231Z,14.15
2019-02-07T03:32:42.332Z,11.80
2019-02-07T03:35:36.682Z,12.03
2019-02-07T03:38:15.004Z,13.20
2019-02-07T03:41:09.316Z,11.88
2019-02-07T03:43:54.840Z,12.18
2019-02-07T03:46:44.799Z,11.08
2019-02-07T03:49:23.056Z,12.43
2019-02-07T03:52:03.373Z,14.83
2019-02-07T03:54:52.293Z,10.40
2019-02-07T03:57:39.734Z,11.55
2019-02-07T04:00:28.636Z,12.00
2019-02-07T04:03:20.287Z,10.65
2019-02-07T04:06:07.853Z,12.33
2019-02-07T04:09:03.654Z,10.88
2019-02-07T04:11:48.900Z,11.25
2019-02-07T04:14:52.369Z,11.18
2019-02-07T04:17:30.214Z,11.78
2019-02-07T04:20:11.656Z,12.20
2019-02-07T04:22:56.144Z,12.60
2019-02-07T04:25:50.663Z,11.48
2019-02-07T04:28:36.328Z,12.13
2019-02-07T04:31:20.861Z,12.70
2019-02-07T04:34:09.025Z,12.37
2019-02-07T04:36:57.758Z,11.48
2019-02-07T04:39:40.802Z,13.10
2019-02-07T04:42:35.061Z,12.50
2019-02-07T04:45:16.871Z,11.45
2019-02-07T04:48:04.386Z,11.97
2019-02-07T04:50:46.203Z,11.85
2019-02-07T04:53:33.467Z,11.63
2019-02-07T04:56:19.959Z,12.82
2019-02-07T04:59:20.858Z,12.35
2019-02-07T05:02:08.311Z,12.65
2019-02-07T05:04:46.364Z,11.20
2019-02-07T05:07:38.030Z,14.83
2019-02-07T05:10:28.301Z,12.40
2019-02-07T05:13:15.913Z,12.85
2019-02-07T05:16:14.522Z,14.30
2019-02-07T05:19:00.330Z,13.35
2019-02-07T05:21:43.339Z,14.95
2019-02-07T05:24:37.642Z,13.45
2019-02-07T05:27:38.050Z,13.75
2019-02-07T05:30:32.178Z,13.08
2019-02-07T05:33:19.242Z,16.15
2019-02-07T05:36:10.548Z,13.08
2019-02-07T05:38:50.813Z,13.28
2019-02-07T05:41:34.784Z,16.55
2019-02-07T05:44:23.290Z,13.53
2019-02-07T05:47:24.073Z,14.28
2019-02-07T05:50:11.355Z,14.20
2019-02-07T05:52:58.361Z,13.25
2019-02-07T05:55:59.312Z,13.30
2019-02-07T05:58:59.137Z,14.45
2019-02-07T06:01:53.410Z,13.88
2019-02-07T06:04:45.296Z,14.95
2019-02-07T06:07:42.866Z,15.78
2019-02-07T06:10:34.428Z,15.93
2019-02-07T06:13:22.946Z,13.00
2019-02-07T06:16:27.177Z,14.63
2019-02-07T06:19:10.986Z,15.50
2019-02-07T06:21:58.234Z,15.75
2019-02-07T06:24:36.164Z,15.20
2019-02-07T06:27:39.741Z,15.38
2019-02-07T06:30:30.283Z,13.08
2019-02-07T06:33:19.171Z,13.75
2019-02-07T06:36:20.093Z,13.05
2019-02-07T06:39:11.716Z,13.55
2019-02-07T06:42:00.226Z,14.95
2019-02-07T06:45:01.203Z,13.85
2019-02-07T06:47:49.895Z,13.45
2019-02-07T06:50:44.359Z,12.35
2019-02-07T06:53:23.941Z,13.13
2019-02-07T06:56:27.680Z,14.20
2019-02-07T06:59:07.791Z,15.18
2019-02-07T07:01:59.249Z,14.30
2019-02-07T07:05:03.142Z,13.83
2019-02-07T07:07:50.629Z,13.68
2019-02-07T07:10:37.977Z,11.75
2019-02-07T07:13:25.440Z,14.30
2019-02-07T07:16:09.633Z,13.70
2019-02-07T07:19:13.489Z,13.62
2019-02-07T07:22:00.745Z,16.17
2019-02-07T07:24:59.366Z,13.30
2019-02-07T07:27:53.972Z,13.53
2019-02-07T07:30:46.912Z,14.98
2019-02-07T07:33:44.375Z,15.13
2019-02-07T07:36:25.855Z,14.45
2019-02-07T07:39:07.469Z,15.53
2019-02-07T07:42:11.060Z,14.18
2019-02-07T07:45:00.342Z,14.83
2019-02-07T07:47:51.949Z,16.82
2019-02-07T07:50:43.140Z,17.42
2019-02-07T07:53:31.817Z,13.53
2019-02-07T07:56:19.276Z,16.60
2019-02-07T07:59:06.317Z,17.15
2019-02-07T08:01:54.840Z,15.10
2019-02-07T08:04:41.966Z,15.05
2019-02-07T08:07:36.717Z,16.62
2019-02-07T08:10:45.982Z,14.70
2019-02-07T08:13:46.430Z,15.83
2019-02-07T08:16:35.277Z,16.00
2019-02-07T08:19:18.096Z,14.00
2019-02-07T08:22:09.371Z,15.70
2019-02-07T08:24:49.192Z,14.47
2019-02-07T08:27:36.737Z,16.23
2019-02-07T08:30:14.446Z,17.50
2019-02-07T08:33:01.910Z,15.85
2019-02-07T08:35:53.446Z,17.65
2019-02-07T08:38:45.281Z,15.25
2019-02-07T08:41:32.681Z,15.63
2019-02-07T08:44:27.963Z,15.05
2019-02-07T08:47:06.831Z,13.45
2019-02-07T08:50:01.164Z,16.32
2019-02-07T08:53:10.555Z,14.85
2019-02-07T08:56:05.004Z,13.93
2019-02-07T08:58:51.959Z,13.08
2019-02-07T09:01:40.347Z,14.78
2019-02-07T09:04:27.782Z,12.80
2019-02-07T09:07:25.568Z,13.45
2019-02-07T09:10:20.145Z,12.50
2019-02-07T09:13:17.714Z,15.55
2019-02-07T09:16:09.538Z,14.78
2019-02-07T09:18:59.339Z,14.25
2019-02-07T09:21:43.938Z,15.93
2019-02-07T09:24:32.397Z,13.60
2019-02-07T09:27:19.344Z,14.90
2019-02-07T09:30:11.164Z,14.40
2019-02-07T09:32:58.320Z,14.53
2019-02-07T09:35:53.059Z,13.20
2019-02-07T09:38:50.713Z,15.18
2019-02-07T09:41:38.023Z,15.03
2019-02-07T09:44:19.907Z,16.93
2019-02-07T09:47:16.566Z,16.48
2019-02-07T09:49:55.060Z,15.35
2019-02-07T09:52:46.908Z,12.93
2019-02-07T09:55:53.763Z,16.07
2019-02-07T09:58:35.282Z,13.45
2019-02-07T10:01:20.729Z,15.00
2019-02-07T10:04:08.040Z,14.93
2019-02-07T10:06:57.950Z,15.45
2019-02-07T10:09:55.135Z,14.13
2019-02-07T10:12:42.125Z,15.38
2019-02-07T10:15:29.586Z,14.03
2019-02-07T10:18:18.006Z,14.30
2019-02-07T10:20:56.479Z,13.53
2019-02-07T10:23:44.864Z,14.05
2019-02-07T10:26:43.573Z,14.50
2019-02-07T10:29:44.306Z,14.80
2019-02-07T10:32:31.088Z,15.05
2019-02-07T10:35:23.182Z,16.73
2019-02-07T10:38:14.719Z,17.87
2019-02-07T10:41:01.967Z,15.83
2019-02-07T10:43:49.321Z,14.70
2019-02-07T10:46:56.674Z,15.60
2019-02-07T10:50:00.538Z,15.30
2019-02-07T10:52:45.460Z,15.53
2019-02-07T10:55:22.280Z,15.30
2019-02-07T10:58:10.719Z,13.70
2019-02-07T11:00:58.474Z,16.40
2019-02-07T11:03:47.861Z,14.60
2019-02-07T11:06:44.543Z,16.77
2019-02-07T11:09:32.521Z,15.72
2019-02-07T11:12:18.894Z,14.35
2019-02-07T11:15:19.485Z,16.57
2019-02-07T11:18:13.945Z,15.45
2019-02-07T11:20:52.116Z,13.73
2019-02-07T11:23:39.512Z,14.05
2019-02-07T11:26:46.461Z,15.50
2019-02-07T11:29:37.700Z,15.38
2019-02-07T11:32:26.047Z,14.97
2019-02-07T11:35:13.454Z,14.93
2019-02-07T11:38:04.624Z,15.28
2019-02-07T11:40:44.114Z,16.00
2019-02-07T11:43:39.896Z,15.43
2019-02-07T11:46:29.224Z,18.05
2019-02-07T11:49:23.736Z,16.93
2019-02-07T11:52:10.378Z,16.50
2019-02-07T11:55:10.940Z,15.23
2019-02-07T11:58:14.716Z,16.85
2019-02-07T12:01:04.931Z,16.87
2019-02-07T12:03:56.350Z,18.57
2019-02-07T12:06:50.900Z,15.88
2019-02-07T12:09:48.461Z,15.93
2019-02-07T12:12:36.912Z,15.15
2019-02-07T12:15:17.934Z,15.53
2019-02-07T12:18:06.470Z,17.05
2019-02-07T12:20:54.207Z,16.00
2019-02-07T12:23:42.691Z,17.23
2019-02-07T12:26:23.953Z,17.48
2019-02-07T12:29:18.659Z,15.90
2019-02-07T12:32:11.148Z,18.50
2019-02-07T12:34:52.959Z,17.45
2019-02-07T12:37:46.337Z,15.88
2019-02-07T12:40:34.656Z,16.75
2019-02-07T12:43:41.798Z,16.23
2019-02-07T12:46:32.712Z,17.10
2019-02-07T12:49:30.034Z,18.02
2019-02-07T12:52:17.528Z,15.70
2019-02-07T12:55:04.967Z,17.42
2019-02-07T12:58:08.928Z,16.90
2019-02-07T13:00:58.034Z,17.62
2019-02-07T13:03:46.476Z,18.60
2019-02-07T13:06:38.771Z,18.45
2019-02-07T13:09:42.283Z,17.95
2019-02-07T13:12:31.222Z,19.75
2019-02-07T13:15:31.859Z,16.50
2019-02-07T13:18:23.243Z,19.85
2019-02-07T13:21:14.728Z,18.23
2019-02-07T13:24:11.587Z,17.92
2019-02-07T13:27:09.700Z,19.07
2019-02-07T13:30:06.071Z,20.40
2019-02-07T13:32:53.092Z,18.42
2019-02-07T13:35:40.349Z,19.60
2019-02-07T13:38:26.781Z,20.08
2019-02-07T13:41:21.051Z,20.70
2019-02-07T13:44:09.510Z,18.90
2019-02-07T13:47:04.216Z,19.32
2019-02-07T13:49:52.425Z,18.52
2019-02-07T13:52:35.612Z,20.50
2019-02-07T13:55:28.448Z,20.02
2019-02-07T13:58:16.212Z,18.95
2019-02-07T14:01:04.084Z,20.45
2019-02-07T14:04:01.522Z,21.37
2019-02-07T14:06:56.152Z,21.35
2019-02-07T14:09:43.429Z,20.85
2019-02-07T14:12:41.334Z,20.75
2019-02-07T14:15:24.616Z,20.72
2019-02-07T14:18:16.752Z,21.62
2019-02-07T14:21:04.306Z,20.43
2019-02-07T14:23:55.756Z,22.77
2019-02-07T14:26:43.226Z,20.20
2019-02-07T14:29:34.982Z,20.37
2019-02-07T14:32:22.765Z,20.08
2019-02-07T14:35:29.515Z,21.48
2019-02-07T14:38:15.881Z,20.85
2019-02-07T14:41:06.887Z,23.22
2019-02-07T14:44:01.438Z,19.25
2019-02-07T14:46:49.823Z,21.68
2019-02-07T14:49:19.461Z,21.25
2019-02-07T14:51:48.962Z,20.12
2019-02-07T14:54:18.544Z,24.23
2019-02-07T14:56:48.093Z,21.73
2019-02-07T14:59:18.047Z,20.37
2019-02-07T15:01:47.559Z,21.95
2019-02-07T15:04:17.037Z,20.88
2019-02-07T15:06:46.513Z,23.40
2019-02-07T15:09:18.357Z,23.45
2019-02-07T15:11:47.934Z,19.75
2019-02-07T15:14:18.016Z,22.02
2019-02-07T15:16:48.086Z,22.27
2019-02-07T15:19:17.559Z,24.25
2019-02-07T15:21:47.112Z,22.85
2019-02-07T15:24:16.601Z,20.27
2019-02-07T15:26:46.111Z,21.87
2019-02-07T15:29:16.224Z,22.95
2019-02-07T15:31:46.087Z,20.90
2019-02-07T15:34:15.589Z,22.30
2019-02-07T15:36:47.410Z,21.23
2019-02-07T15:39:18.057Z,19.98
2019-02-07T15:41:48.042Z,20.57
2019-02-07T15:44:17.911Z,20.77
2019-02-07T15:46:47.415Z,22.48
2019-02-07T15:49:16.956Z,23.12
2019-02-07T15:51:48.670Z,21.00
2019-02-07T15:54:18.133Z,20.95
2019-02-07T15:56:47.518Z,23.57
2019-02-07T15:59:24.360Z,23.83
2019-02-07T16:02:12.831Z,22.25
2019-02-07T16:04:44.632Z,20.80
2019-02-07T16:07:14.267Z,22.10
2019-02-07T16:09:43.720Z,21.70
2019-02-07T16:12:13.122Z,19.80
2019-02-07T16:14:43.309Z,22.25
2019-02-07T16:17:12.710Z,22.20
2019-02-07T16:19:42.162Z,20.68
2019-02-07T16:22:11.729Z,23.22
2019-02-07T16:24:41.433Z,21.85
2019-02-07T16:27:10.913Z,21.73
2019-02-07T16:29:40.676Z,21.17
2019-02-07T16:32:10.244Z,20.45
2019-02-07T16:34:39.935Z,21.60
2019-02-07T16:37:09.437Z,20.27
2019-02-07T16:39:39.210Z,22.53
2019-02-07T16:42:08.893Z,20.57
2019-02-07T16:44:38.405Z,20.60
2019-02-07T16:47:07.913Z,20.83
2019-02-07T16:49:37.326Z,22.50
2019-02-07T16:52:06.997Z,20.03
2019-02-07T16:54:36.788Z,24.43
2019-02-07T16:57:06.243Z,20.93
2019-02-07T16:59:35.714Z,22.97
2019-02-07T17:02:05.771Z,22.27
2019-02-07T17:04:35.164Z,23.33
2019-02-07T17:07:04.759Z,24.37
2019-02-07T17:09:36.790Z,24.50
2019-02-07T17:12:06.798Z,24.07
2019-02-07T17:14:36.328Z,22.85
2019-02-07T17:17:05.993Z,23.63
2019-02-07T17:19:36.122Z,21.90
2019-02-07T17:22:05.748Z,22.93
2019-02-07T17:24:35.151Z,23.57
2019-02-07T17:27:05.028Z,21.10
2019-02-07T17:29:34.723Z,22.03
2019-02-07T17:32:04.907Z,21.20
2019-02-07T17:34:34.423Z,21.30
2019-02-07T17:37:04.278Z,22.10
2019-02-07T17:39:33.760Z,21.47
2019-02-07T17:42:04.253Z,22.53
2019-02-07T17:44:34.234Z,21.62
2019-02-07T17:47:03.896Z,23.38
2019-02-07T17:49:33.392Z,21.73
2019-02-07T17:52:03.145Z,22.40
2019-02-07T17:54:32.623Z,21.23
2019-02-07T17:57:02.389Z,22.07
2019-02-07T17:59:32.409Z,24.60
2019-02-07T18:02:01.970Z,20.85
2019-02-07T18:04:31.466Z,23.25
2019-02-07T18:07:00.962Z,21.65
2019-02-07T18:09:30.464Z,20.52
2019-02-07T18:12:00.520Z,19.00
2019-02-07T18:14:30.097Z,20.43
2019-02-07T18:16:59.593Z,17.77
2019-02-07T18:19:29.070Z,19.77
2019-02-07T18:21:58.688Z,24.43
2019-02-07T18:24:28.061Z,20.90
2019-02-07T18:26:58.143Z,20.53
2019-02-07T18:29:27.556Z,21.00
2019-02-07T18:31:58.609Z,20.87
2019-02-07T18:34:28.066Z,22.60
2019-02-07T18:36:57.444Z,20.83
2019-02-07T18:39:26.820Z,20.90
2019-02-07T18:41:56.492Z,19.43
2019-02-07T18:44:25.998Z,19.53
2019-02-07T18:46:55.661Z,19.17
2019-02-07T18:49:25.139Z,19.57
2019-02-07T18:51:54.555Z,18.27
2019-02-07T18:54:24.290Z,19.23
2019-02-07T18:56:54.109Z,20.60
2019-02-07T18:59:24.024Z,19.70
2019-02-07T19:01:53.431Z,18.80
2019-02-07T19:04:23.047Z,20.12
2019-02-07T19:06:52.614Z,21.02
2019-02-07T19:09:22.195Z,20.08
2019-02-07T19:11:52.030Z,17.95
2019-02-07T19:14:21.448Z,18.77
2019-02-07T19:16:51.227Z,19.62
2019-02-07T19:19:20.905Z,17.00
2019-02-07T19:21:57.295Z,19.00
2019-02-07T19:24:21.520Z,20.63
2019-02-07T19:26:51.265Z,20.82
2019-02-07T19:29:20.706Z,17.83
2019-02-07T19:31:50.086Z,18.00
2019-02-07T19:34:19.558Z,18.70
2019-02-07T19:36:48.962Z,18.50
2019-02-07T19:39:20.069Z,20.10
2019-02-07T19:41:49.871Z,20.13
2019-02-07T19:44:19.253Z,17.17
2019-02-07T19:46:48.786Z,19.17
2019-02-07T19:49:18.614Z,19.23
2019-02-07T19:51:47.981Z,18.40
2019-02-07T19:54:17.390Z,19.40
2019-02-07T19:56:47.159Z,16.70
2019-02-07T19:59:16.672Z,20.20
2019-02-07T20:01:46.120Z,18.10
2019-02-07T20:04:15.507Z,17.70
2019-02-07T20:06:44.927Z,18.77
2019-02-07T20:09:14.517Z,19.87
2019-02-07T20:11:44.386Z,20.00
2019-02-07T20:14:13.961Z,18.53
2019-02-07T20:16:43.572Z,19.23
2019-02-07T20:19:13.137Z,19.77
2019-02-07T20:21:42.755Z,18.20
2019-02-07T20:24:12.326Z,20.05
2019-02-07T20:26:41.746Z,17.40
2019-02-07T20:29:11.560Z,18.97
2019-02-07T20:31:41.179Z,19.10
2019-02-07T20:34:10.607Z,18.27
2019-02-07T20:36:40.247Z,18.10
2019-02-07T20:39:10.555Z,17.73
2019-02-07T20:41:40.182Z,18.97
2019-02-07T20:44:09.695Z,17.97
2019-02-07T20:46:39.231Z,18.57
2019-02-07T20:49:08.862Z,18.07
2019-02-07T20:51:38.466Z,20.90
2019-02-07T20:54:07.967Z,20.25
2019-02-07T20:56:37.575Z,19.20
2019-02-07T20:59:07.115Z,18.50
2019-02-07T21:01:36.865Z,18.73
2019-02-07T21:04:06.703Z,17.27
2019-02-07T21:06:36.101Z,20.07
2019-02-07T21:09:08.755Z,18.40
2019-02-07T21:11:38.141Z,17.97
2019-02-07T21:14:07.603Z,18.83
2019-02-07T21:16:37.447Z,20.20
2019-02-07T21:19:06.833Z,18.30
2019-02-07T21:21:36.258Z,18.20
2019-02-07T21:24:06.089Z,18.90
2019-02-07T21:26:35.592Z,17.80
2019-02-07T21:29:05.399Z,17.47
2019-02-07T21:31:34.812Z,17.70
2019-02-07T21:34:04.385Z,16.87
2019-02-07T21:36:33.846Z,18.77
2019-02-07T21:39:03.621Z,19.53
2019-02-07T21:41:33.133Z,16.90
2019-02-07T21:44:02.572Z,19.20
2019-02-07T21:46:31.969Z,18.67
2019-02-07T21:49:01.879Z,18.03
2019-02-07T21:51:31.334Z,18.80
2019-02-07T21:54:00.917Z,18.70
2019-02-07T21:56:30.376Z,17.87
2019-02-07T21:58:59.854Z,18.00
2019-02-07T22:01:29.255Z,17.07
2019-02-07T22:03:59.137Z,17.10
2019-02-07T22:06:28.520Z,18.53
2019-02-07T22:08:58.010Z,19.33
2019-02-07T22:11:27.635Z,19.40
2019-02-07T22:13:57.027Z,19.80
2019-02-07T22:16:26.514Z,16.80
2019-02-07T22:18:56.289Z,19.10
2019-02-07T22:21:25.717Z,16.50
2019-02-07T22:23:55.132Z,16.00
2019-02-07T22:26:24.519Z,16.70
2019-02-07T22:28:54.049Z,17.83
2019-02-07T22:31:23.889Z,18.60
2019-02-07T22:33:53.732Z,17.67
2019-02-07T22:36:23.202Z,16.83
2019-02-07T22:38:52.707Z,17.95
2019-02-07T22:41:22.259Z,17.73
2019-02-07T22:43:51.788Z,18.90
2019-02-07T22:46:21.190Z,15.90
2019-02-07T22:48:50.752Z,18.67
2019-02-07T22:51:21.063Z,18.77
2019-02-07T22:53:50.545Z,17.57
2019-02-07T22:56:20.130Z,19.05
2019-02-07T22:58:49.611Z,18.25
2019-02-07T23:01:42.548Z,17.87
2019-02-07T23:04:12.337Z,18.27
2019-02-07T23:06:41.801Z,17.20
2019-02-07T23:09:14.404Z,18.23
2019-02-07T23:11:43.880Z,16.02
2019-02-07T23:14:14.985Z,19.03
2019-02-07T23:16:44.910Z,17.15
2019-02-07T23:19:14.309Z,16.90
2019-02-07T23:21:43.831Z,17.60
2019-02-07T23:24:13.310Z,17.12
2019-02-07T23:26:42.852Z,17.60
2019-02-07T23:29:12.376Z,17.00
2019-02-07T23:31:42.016Z,18.55
2019-02-07T23:34:11.516Z,15.20
2019-02-07T23:36:41.010Z,16.25
2019-02-07T23:39:11.479Z,17.27
2019-02-07T23:41:40.992Z,18.55
2019-02-07T23:44:10.945Z,17.55
2019-02-07T23:46:40.446Z,18.77
2019-02-07T23:49:09.948Z,17.00
2019-02-07T23:51:39.427Z,16.67
2019-02-07T23:54:08.953Z,16.73
2019-02-07T23:56:38.456Z,18.07
2019-02-07T23:59:08.278Z,20.10
